sensor_id;sensor_type;location;lat;lon;timestamp;P1;durP1;ratioP1;P2;durP2;ratioP2
71183;SDS011;58887;51.980;4.464;2022-10-16T00:00:33;1.77;;;1.77;;
71183;SDS011;58887;51.980;4.464;2022-10-16T00:03:00;1.69;;;1.68;;
71183;SDS011;58887;51.980;4.464;2022-10-16T00:05:26;1.72;;;1.72;;
71183;SDS011;58887;51.980;4.464;2022-10-16T00:07:51;1.56;;;1.55;;
71183;SDS011;58887;51.980;4.464;2022-10-16T00:10:17;1.60;;;1.60;;
71183;SDS011;58887;51.980;4.464;2022-10-16T00:12:42;1.54;;;1.54;;
71183;SDS011;58887;51.980;4.464;2022-10-16T00:15:08;1.67;;;1.66;;
71183;SDS011;58887;51.980;4.464;2022-10-16T00:17:34;1.70;;;1.68;;
71183;SDS011;58887;51.980;4.464;2022-10-16T00:19:59;1.31;;;1.30;;
71183;SDS011;58887;51.980;4.464;2022-10-16T00:22:24;1.39;;;1.38;;
71183;SDS011;58887;51.980;4.464;2022-10-16T00:24:50;1.33;;;1.33;;
71183;SDS011;58887;51.980;4.464;2022-10-16T00:27:16;1.32;;;1.32;;
71183;SDS011;58887;51.980;4.464;2022-10-16T00:29:41;1.15;;;1.15;;
71183;SDS011;58887;51.980;4.464;2022-10-16T00:32:07;1.07;;;1.07;;
71183;SDS011;58887;51.980;4.464;2022-10-16T00:34:33;1.06;;;1.06;;
71183;SDS011;58887;51.980;4.464;2022-10-16T00:36:59;1.18;;;1.18;;
71183;SDS011;58887;51.980;4.464;2022-10-16T00:39:24;1.19;;;1.17;;
71183;SDS011;58887;51.980;4.464;2022-10-16T00:41:50;1.02;;;1.01;;
71183;SDS011;58887;51.980;4.464;2022-10-16T00:47:23;1.04;;;1.04;;
71183;SDS011;58887;51.980;4.464;2022-10-16T00:49:53;1.19;;;1.18;;
71183;SDS011;58887;51.980;4.464;2022-10-16T00:52:24;1.32;;;1.30;;
71183;SDS011;58887;51.980;4.464;2022-10-16T00:54:50;1.40;;;1.39;;
71183;SDS011;58887;51.980;4.464;2022-10-16T00:57:19;1.50;;;1.50;;
71183;SDS011;58887;51.980;4.464;2022-10-16T00:59:45;1.45;;;1.45;;
71183;SDS011;58887;51.980;4.464;2022-10-16T01:02:13;1.56;;;1.56;;
71183;SDS011;58887;51.980;4.464;2022-10-16T01:04:58;1.70;;;1.70;;
71183;SDS011;58887;51.980;4.464;2022-10-16T01:07:34;1.80;;;1.80;;
71183;SDS011;58887;51.980;4.464;2022-10-16T01:10:25;1.83;;;1.83;;
71183;SDS011;58887;51.980;4.464;2022-10-16T01:13:05;1.83;;;1.83;;
71183;SDS011;58887;51.980;4.464;2022-10-16T01:15:46;2.00;;;2.00;;
71183;SDS011;58887;51.980;4.464;2022-10-16T01:18:14;1.91;;;1.91;;
71183;SDS011;58887;51.980;4.464;2022-10-16T01:28:25;1.81;;;1.81;;
71183;SDS011;58887;51.980;4.464;2022-10-16T01:30:59;1.75;;;1.75;;
71183;SDS011;58887;51.980;4.464;2022-10-16T01:33:34;1.75;;;1.75;;
71183;SDS011;58887;51.980;4.464;2022-10-16T01:36:13;1.72;;;1.72;;
71183;SDS011;58887;51.980;4.464;2022-10-16T01:38:44;1.67;;;1.67;;
71183;SDS011;58887;51.980;4.464;2022-10-16T01:41:23;1.60;;;1.60;;
71183;SDS011;58887;51.980;4.464;2022-10-16T01:44:02;1.54;;;1.54;;
71183;SDS011;58887;51.980;4.464;2022-10-16T01:46:33;1.91;;;1.91;;
71183;SDS011;58887;51.980;4.464;2022-10-16T01:49:02;1.85;;;1.85;;
71183;SDS011;58887;51.980;4.464;2022-10-16T01:51:29;2.04;;;2.04;;
71183;SDS011;58887;51.980;4.464;2022-10-16T01:53:55;2.10;;;2.10;;
71183;SDS011;58887;51.980;4.464;2022-10-16T01:56:25;2.05;;;2.05;;
71183;SDS011;58887;51.980;4.464;2022-10-16T01:58:55;2.26;;;2.26;;
71183;SDS011;58887;51.980;4.464;2022-10-16T02:01:26;2.14;;;2.14;;
71183;SDS011;58887;51.980;4.464;2022-10-16T02:03:57;2.10;;;2.10;;
71183;SDS011;58887;51.980;4.464;2022-10-16T02:06:29;2.26;;;2.26;;
71183;SDS011;58887;51.980;4.464;2022-10-16T02:08:55;2.29;;;2.29;;
71183;SDS011;58887;51.980;4.464;2022-10-16T02:11:20;2.46;;;2.46;;
71183;SDS011;58887;51.980;4.464;2022-10-16T02:13:46;2.47;;;2.47;;
71183;SDS011;58887;51.980;4.464;2022-10-16T02:16:39;2.34;;;2.34;;
71183;SDS011;58887;51.980;4.464;2022-10-16T02:19:10;2.42;;;2.42;;
71183;SDS011;58887;51.980;4.464;2022-10-16T02:26:40;2.32;;;2.32;;
71183;SDS011;58887;51.980;4.464;2022-10-16T02:29:16;2.59;;;2.59;;
71183;SDS011;58887;51.980;4.464;2022-10-16T02:31:49;2.29;;;2.29;;
71183;SDS011;58887;51.980;4.464;2022-10-16T02:34:25;2.20;;;2.20;;
71183;SDS011;58887;51.980;4.464;2022-10-16T02:36:55;2.12;;;2.12;;
71183;SDS011;58887;51.980;4.464;2022-10-16T02:39:23;2.36;;;2.36;;
71183;SDS011;58887;51.980;4.464;2022-10-16T02:41:52;2.33;;;2.33;;
71183;SDS011;58887;51.980;4.464;2022-10-16T02:44:17;2.17;;;2.16;;
71183;SDS011;58887;51.980;4.464;2022-10-16T02:46:43;2.06;;;2.06;;
71183;SDS011;58887;51.980;4.464;2022-10-16T02:49:08;2.12;;;2.12;;
71183;SDS011;58887;51.980;4.464;2022-10-16T02:51:33;2.12;;;2.12;;
71183;SDS011;58887;51.980;4.464;2022-10-16T02:53:59;1.89;;;1.89;;
71183;SDS011;58887;51.980;4.464;2022-10-16T02:56:24;2.01;;;2.01;;
71183;SDS011;58887;51.980;4.464;2022-10-16T02:58:50;1.99;;;1.99;;
71183;SDS011;58887;51.980;4.464;2022-10-16T03:01:15;2.08;;;2.08;;
71183;SDS011;58887;51.980;4.464;2022-10-16T03:03:42;1.88;;;1.88;;
71183;SDS011;58887;51.980;4.464;2022-10-16T03:06:07;1.83;;;1.83;;
71183;SDS011;58887;51.980;4.464;2022-10-16T03:08:33;1.83;;;1.83;;
71183;SDS011;58887;51.980;4.464;2022-10-16T03:10:58;2.01;;;2.00;;
71183;SDS011;58887;51.980;4.464;2022-10-16T03:13:23;1.92;;;1.90;;
71183;SDS011;58887;51.980;4.464;2022-10-16T03:15:49;1.96;;;1.95;;
71183;SDS011;58887;51.980;4.464;2022-10-16T03:18:15;1.94;;;1.94;;
71183;SDS011;58887;51.980;4.464;2022-10-16T03:20:40;2.10;;;2.10;;
71183;SDS011;58887;51.980;4.464;2022-10-16T03:23:07;1.94;;;1.94;;
71183;SDS011;58887;51.980;4.464;2022-10-16T03:25:33;1.97;;;1.97;;
71183;SDS011;58887;51.980;4.464;2022-10-16T03:27:58;1.94;;;1.94;;
71183;SDS011;58887;51.980;4.464;2022-10-16T03:30:24;2.00;;;2.00;;
71183;SDS011;58887;51.980;4.464;2022-10-16T03:32:49;1.86;;;1.85;;
71183;SDS011;58887;51.980;4.464;2022-10-16T03:35:19;1.74;;;1.74;;
71183;SDS011;58887;51.980;4.464;2022-10-16T03:37:48;1.63;;;1.62;;
71183;SDS011;58887;51.980;4.464;2022-10-16T03:40:13;1.98;;;1.95;;
71183;SDS011;58887;51.980;4.464;2022-10-16T03:42:39;1.71;;;1.69;;
71183;SDS011;58887;51.980;4.464;2022-10-16T03:45:04;1.68;;;1.65;;
71183;SDS011;58887;51.980;4.464;2022-10-16T03:47:30;1.58;;;1.56;;
71183;SDS011;58887;51.980;4.464;2022-10-16T03:49:58;1.64;;;1.61;;
71183;SDS011;58887;51.980;4.464;2022-10-16T03:52:24;1.57;;;1.55;;
71183;SDS011;58887;51.980;4.464;2022-10-16T03:54:50;1.55;;;1.53;;
71183;SDS011;58887;51.980;4.464;2022-10-16T03:57:16;1.58;;;1.54;;
71183;SDS011;58887;51.980;4.464;2022-10-16T03:59:42;1.56;;;1.52;;
71183;SDS011;58887;51.980;4.464;2022-10-16T04:02:07;1.73;;;1.70;;
71183;SDS011;58887;51.980;4.464;2022-10-16T04:04:33;1.64;;;1.61;;
71183;SDS011;58887;51.980;4.464;2022-10-16T04:06:58;1.77;;;1.74;;
71183;SDS011;58887;51.980;4.464;2022-10-16T04:09:23;1.60;;;1.58;;
71183;SDS011;58887;51.980;4.464;2022-10-16T04:11:49;1.61;;;1.60;;
71183;SDS011;58887;51.980;4.464;2022-10-16T04:14:14;1.73;;;1.73;;
71183;SDS011;58887;51.980;4.464;2022-10-16T04:16:40;1.73;;;1.72;;
71183;SDS011;58887;51.980;4.464;2022-10-16T04:19:05;1.89;;;1.89;;
71183;SDS011;58887;51.980;4.464;2022-10-16T04:21:30;1.77;;;1.77;;
71183;SDS011;58887;51.980;4.464;2022-10-16T04:23:56;1.71;;;1.71;;
71183;SDS011;58887;51.980;4.464;2022-10-16T04:26:21;1.90;;;1.89;;
71183;SDS011;58887;51.980;4.464;2022-10-16T04:28:47;1.94;;;1.94;;
71183;SDS011;58887;51.980;4.464;2022-10-16T04:31:12;1.79;;;1.78;;
71183;SDS011;58887;51.980;4.464;2022-10-16T04:33:38;1.78;;;1.78;;
71183;SDS011;58887;51.980;4.464;2022-10-16T04:36:03;1.86;;;1.86;;
71183;SDS011;58887;51.980;4.464;2022-10-16T04:38:29;2.00;;;2.00;;
71183;SDS011;58887;51.980;4.464;2022-10-16T04:40:55;1.71;;;1.71;;
71183;SDS011;58887;51.980;4.464;2022-10-16T04:43:21;1.90;;;1.90;;
71183;SDS011;58887;51.980;4.464;2022-10-16T04:45:47;1.77;;;1.77;;
71183;SDS011;58887;51.980;4.464;2022-10-16T04:48:15;1.77;;;1.77;;
71183;SDS011;58887;51.980;4.464;2022-10-16T04:50:41;1.96;;;1.96;;
71183;SDS011;58887;51.980;4.464;2022-10-16T04:53:06;2.04;;;2.04;;
71183;SDS011;58887;51.980;4.464;2022-10-16T04:55:32;1.98;;;1.98;;
71183;SDS011;58887;51.980;4.464;2022-10-16T04:57:57;1.97;;;1.97;;
71183;SDS011;58887;51.980;4.464;2022-10-16T05:00:23;2.07;;;2.07;;
71183;SDS011;58887;51.980;4.464;2022-10-16T05:02:52;1.96;;;1.95;;
71183;SDS011;58887;51.980;4.464;2022-10-16T05:05:17;1.67;;;1.67;;
71183;SDS011;58887;51.980;4.464;2022-10-16T05:07:45;2.03;;;2.03;;
71183;SDS011;58887;51.980;4.464;2022-10-16T05:10:11;2.54;;;2.54;;
71183;SDS011;58887;51.980;4.464;2022-10-16T05:12:36;3.21;;;3.21;;
71183;SDS011;58887;51.980;4.464;2022-10-16T05:15:02;2.90;;;2.88;;
71183;SDS011;58887;51.980;4.464;2022-10-16T05:17:27;2.59;;;2.58;;
71183;SDS011;58887;51.980;4.464;2022-10-16T05:19:53;1.99;;;1.98;;
71183;SDS011;58887;51.980;4.464;2022-10-16T05:22:19;1.94;;;1.93;;
71183;SDS011;58887;51.980;4.464;2022-10-16T05:24:44;2.09;;;2.06;;
71183;SDS011;58887;51.980;4.464;2022-10-16T05:27:10;2.09;;;2.07;;
71183;SDS011;58887;51.980;4.464;2022-10-16T05:29:36;2.14;;;2.14;;
71183;SDS011;58887;51.980;4.464;2022-10-16T05:32:01;2.20;;;2.20;;
71183;SDS011;58887;51.980;4.464;2022-10-16T05:34:27;2.46;;;2.46;;
71183;SDS011;58887;51.980;4.464;2022-10-16T05:36:52;2.52;;;2.51;;
71183;SDS011;58887;51.980;4.464;2022-10-16T05:39:18;2.42;;;2.40;;
71183;SDS011;58887;51.980;4.464;2022-10-16T05:41:44;1.98;;;1.98;;
71183;SDS011;58887;51.980;4.464;2022-10-16T05:44:10;2.03;;;2.03;;
71183;SDS011;58887;51.980;4.464;2022-10-16T05:46:35;2.12;;;2.12;;
71183;SDS011;58887;51.980;4.464;2022-10-16T05:49:01;2.01;;;2.01;;
71183;SDS011;58887;51.980;4.464;2022-10-16T05:51:26;1.97;;;1.97;;
71183;SDS011;58887;51.980;4.464;2022-10-16T05:53:52;2.24;;;2.24;;
71183;SDS011;58887;51.980;4.464;2022-10-16T05:56:17;2.00;;;2.00;;
71183;SDS011;58887;51.980;4.464;2022-10-16T05:58:43;2.00;;;2.00;;
71183;SDS011;58887;51.980;4.464;2022-10-16T06:01:16;2.19;;;2.18;;
71183;SDS011;58887;51.980;4.464;2022-10-16T06:03:45;2.70;;;2.66;;
71183;SDS011;58887;51.980;4.464;2022-10-16T06:06:12;2.68;;;2.66;;
71183;SDS011;58887;51.980;4.464;2022-10-16T06:08:40;2.51;;;2.49;;
71183;SDS011;58887;51.980;4.464;2022-10-16T06:11:08;2.32;;;2.30;;
71183;SDS011;58887;51.980;4.464;2022-10-16T06:13:35;2.22;;;2.20;;
71183;SDS011;58887;51.980;4.464;2022-10-16T06:16:02;2.53;;;2.53;;
71183;SDS011;58887;51.980;4.464;2022-10-16T06:18:29;3.52;;;3.49;;
71183;SDS011;58887;51.980;4.464;2022-10-16T06:20:55;2.86;;;2.78;;
71183;SDS011;58887;51.980;4.464;2022-10-16T06:23:22;2.48;;;2.40;;
71183;SDS011;58887;51.980;4.464;2022-10-16T06:25:47;2.38;;;2.25;;
71183;SDS011;58887;51.980;4.464;2022-10-16T06:28:13;2.25;;;2.13;;
71183;SDS011;58887;51.980;4.464;2022-10-16T06:30:40;2.64;;;2.49;;
71183;SDS011;58887;51.980;4.464;2022-10-16T06:33:06;2.21;;;2.11;;
71183;SDS011;58887;51.980;4.464;2022-10-16T06:35:31;1.90;;;1.81;;
71183;SDS011;58887;51.980;4.464;2022-10-16T06:37:57;2.11;;;1.96;;
71183;SDS011;58887;51.980;4.464;2022-10-16T06:40:23;2.24;;;2.08;;
71183;SDS011;58887;51.980;4.464;2022-10-16T06:42:48;1.95;;;1.83;;
71183;SDS011;58887;51.980;4.464;2022-10-16T06:45:14;2.14;;;2.04;;
71183;SDS011;58887;51.980;4.464;2022-10-16T06:47:39;2.16;;;2.11;;
71183;SDS011;58887;51.980;4.464;2022-10-16T06:50:05;1.84;;;1.84;;
71183;SDS011;58887;51.980;4.464;2022-10-16T06:52:32;2.12;;;2.12;;
71183;SDS011;58887;51.980;4.464;2022-10-16T06:54:58;2.25;;;2.18;;
71183;SDS011;58887;51.980;4.464;2022-10-16T06:57:24;2.29;;;2.16;;
71183;SDS011;58887;51.980;4.464;2022-10-16T06:59:50;2.42;;;2.24;;
71183;SDS011;58887;51.980;4.464;2022-10-16T07:02:15;2.41;;;2.21;;
71183;SDS011;58887;51.980;4.464;2022-10-16T07:04:41;2.18;;;2.00;;
71183;SDS011;58887;51.980;4.464;2022-10-16T07:07:06;2.22;;;2.02;;
71183;SDS011;58887;51.980;4.464;2022-10-16T07:09:31;2.31;;;2.12;;
71183;SDS011;58887;51.980;4.464;2022-10-16T07:11:57;2.37;;;2.23;;
71183;SDS011;58887;51.980;4.464;2022-10-16T07:14:22;2.56;;;2.51;;
71183;SDS011;58887;51.980;4.464;2022-10-16T07:16:48;2.79;;;2.79;;
71183;SDS011;58887;51.980;4.464;2022-10-16T07:19:14;2.36;;;2.36;;
71183;SDS011;58887;51.980;4.464;2022-10-16T07:21:42;2.46;;;2.46;;
71183;SDS011;58887;51.980;4.464;2022-10-16T07:24:11;2.40;;;2.34;;
71183;SDS011;58887;51.980;4.464;2022-10-16T07:26:38;2.69;;;2.54;;
71183;SDS011;58887;51.980;4.464;2022-10-16T07:29:06;2.41;;;2.27;;
71183;SDS011;58887;51.980;4.464;2022-10-16T07:31:36;2.68;;;2.44;;
71183;SDS011;58887;51.980;4.464;2022-10-16T07:34:01;2.57;;;2.34;;
71183;SDS011;58887;51.980;4.464;2022-10-16T07:36:27;2.41;;;2.20;;
71183;SDS011;58887;51.980;4.464;2022-10-16T07:38:52;2.57;;;2.32;;
71183;SDS011;58887;51.980;4.464;2022-10-16T07:41:18;2.69;;;2.44;;
71183;SDS011;58887;51.980;4.464;2022-10-16T07:43:51;2.59;;;2.38;;
71183;SDS011;58887;51.980;4.464;2022-10-16T07:46:19;2.49;;;2.27;;
71183;SDS011;58887;51.980;4.464;2022-10-16T07:48:46;2.39;;;2.18;;
71183;SDS011;58887;51.980;4.464;2022-10-16T07:51:13;2.42;;;2.18;;
71183;SDS011;58887;51.980;4.464;2022-10-16T07:53:41;2.94;;;2.62;;
71183;SDS011;58887;51.980;4.464;2022-10-16T07:56:07;2.77;;;2.40;;
71183;SDS011;58887;51.980;4.464;2022-10-16T07:58:33;2.56;;;2.21;;
71183;SDS011;58887;51.980;4.464;2022-10-16T08:01:09;2.51;;;2.17;;
71183;SDS011;58887;51.980;4.464;2022-10-16T08:03:37;2.46;;;2.12;;
71183;SDS011;58887;51.980;4.464;2022-10-16T08:06:03;2.61;;;2.28;;
71183;SDS011;58887;51.980;4.464;2022-10-16T08:08:29;2.42;;;2.12;;
71183;SDS011;58887;51.980;4.464;2022-10-16T08:10:55;2.51;;;2.18;;
71183;SDS011;58887;51.980;4.464;2022-10-16T08:13:21;2.74;;;2.30;;
71183;SDS011;58887;51.980;4.464;2022-10-16T08:15:47;2.96;;;2.44;;
71183;SDS011;58887;51.980;4.464;2022-10-16T08:18:13;2.96;;;2.43;;
71183;SDS011;58887;51.980;4.464;2022-10-16T08:20:39;2.40;;;2.00;;
71183;SDS011;58887;51.980;4.464;2022-10-16T08:23:06;3.02;;;2.48;;
71183;SDS011;58887;51.980;4.464;2022-10-16T08:25:34;2.90;;;2.28;;
71183;SDS011;58887;51.980;4.464;2022-10-16T08:28:03;3.30;;;2.53;;
71183;SDS011;58887;51.980;4.464;2022-10-16T08:30:30;3.05;;;2.37;;
71183;SDS011;58887;51.980;4.464;2022-10-16T08:32:56;3.10;;;2.42;;
71183;SDS011;58887;51.980;4.464;2022-10-16T08:35:23;3.12;;;2.45;;
71183;SDS011;58887;51.980;4.464;2022-10-16T08:37:48;3.28;;;2.60;;
71183;SDS011;58887;51.980;4.464;2022-10-16T08:40:20;3.11;;;2.43;;
71183;SDS011;58887;51.980;4.464;2022-10-16T08:42:56;3.31;;;2.55;;
71183;SDS011;58887;51.980;4.464;2022-10-16T08:45:58;3.61;;;2.73;;
71183;SDS011;58887;51.980;4.464;2022-10-16T08:48:45;3.67;;;2.71;;
71183;SDS011;58887;51.980;4.464;2022-10-16T08:51:26;3.74;;;2.75;;
71183;SDS011;58887;51.980;4.464;2022-10-16T08:53:56;3.71;;;2.74;;
71183;SDS011;58887;51.980;4.464;2022-10-16T08:56:24;3.33;;;2.52;;
71183;SDS011;58887;51.980;4.464;2022-10-16T08:58:51;3.68;;;2.75;;
71183;SDS011;58887;51.980;4.464;2022-10-16T09:01:19;3.60;;;2.67;;
71183;SDS011;58887;51.980;4.464;2022-10-16T09:10:22;4.04;;;2.99;;
71183;SDS011;58887;51.980;4.464;2022-10-16T09:19:09;3.98;;;2.86;;
71183;SDS011;58887;51.980;4.464;2022-10-16T09:21:54;3.66;;;2.69;;
71183;SDS011;58887;51.980;4.464;2022-10-16T09:24:21;3.63;;;2.77;;
71183;SDS011;58887;51.980;4.464;2022-10-16T09:26:50;3.58;;;2.73;;
71183;SDS011;58887;51.980;4.464;2022-10-16T09:29:16;3.52;;;2.65;;
71183;SDS011;58887;51.980;4.464;2022-10-16T09:31:46;3.71;;;2.73;;
71183;SDS011;58887;51.980;4.464;2022-10-16T09:36:44;4.61;;;3.18;;
71183;SDS011;58887;51.980;4.464;2022-10-16T09:39:12;4.42;;;3.03;;
71183;SDS011;58887;51.980;4.464;2022-10-16T09:41:39;5.01;;;3.33;;
71183;SDS011;58887;51.980;4.464;2022-10-16T09:44:24;5.29;;;3.44;;
71183;SDS011;58887;51.980;4.464;2022-10-16T09:47:03;5.14;;;3.36;;
71183;SDS011;58887;51.980;4.464;2022-10-16T09:49:31;5.69;;;3.75;;
71183;SDS011;58887;51.980;4.464;2022-10-16T09:52:10;4.64;;;3.12;;
71183;SDS011;58887;51.980;4.464;2022-10-16T09:54:48;5.07;;;3.43;;
71183;SDS011;58887;51.980;4.464;2022-10-16T09:57:22;4.62;;;3.12;;
71183;SDS011;58887;51.980;4.464;2022-10-16T09:59:49;5.39;;;3.56;;
71183;SDS011;58887;51.980;4.464;2022-10-16T10:02:17;5.17;;;3.50;;
71183;SDS011;58887;51.980;4.464;2022-10-16T10:04:52;4.70;;;3.22;;
71183;SDS011;58887;51.980;4.464;2022-10-16T10:10:04;4.60;;;3.20;;
71183;SDS011;58887;51.980;4.464;2022-10-16T10:12:31;4.60;;;3.12;;
71183;SDS011;58887;51.980;4.464;2022-10-16T10:15:12;5.23;;;3.54;;
71183;SDS011;58887;51.980;4.464;2022-10-16T10:17:53;5.29;;;3.60;;
71183;SDS011;58887;51.980;4.464;2022-10-16T10:20:30;5.64;;;3.76;;
71183;SDS011;58887;51.980;4.464;2022-10-16T10:23:00;6.07;;;4.01;;
71183;SDS011;58887;51.980;4.464;2022-10-16T10:29:17;5.63;;;3.80;;
71183;SDS011;58887;51.980;4.464;2022-10-16T10:37:10;5.01;;;3.41;;
71183;SDS011;58887;51.980;4.464;2022-10-16T10:40:21;5.38;;;3.57;;
71183;SDS011;58887;51.980;4.464;2022-10-16T10:43:10;5.68;;;3.70;;
71183;SDS011;58887;51.980;4.464;2022-10-16T10:46:00;5.02;;;3.26;;
71183;SDS011;58887;51.980;4.464;2022-10-16T10:48:47;5.27;;;3.37;;
71183;SDS011;58887;51.980;4.464;2022-10-16T10:54:28;5.75;;;3.64;;
71183;SDS011;58887;51.980;4.464;2022-10-16T10:57:09;5.91;;;3.74;;
71183;SDS011;58887;51.980;4.464;2022-10-16T11:02:50;6.22;;;3.96;;
71183;SDS011;58887;51.980;4.464;2022-10-16T11:08:04;5.49;;;3.44;;
71183;SDS011;58887;51.980;4.464;2022-10-16T11:10:54;5.91;;;3.75;;
71183;SDS011;58887;51.980;4.464;2022-10-16T11:16:00;5.37;;;3.38;;
71183;SDS011;58887;51.980;4.464;2022-10-16T11:18:55;4.85;;;3.08;;
71183;SDS011;58887;51.980;4.464;2022-10-16T11:21:29;5.68;;;3.56;;
71183;SDS011;58887;51.980;4.464;2022-10-16T11:27:21;6.35;;;3.93;;
71183;SDS011;58887;51.980;4.464;2022-10-16T11:29:59;5.57;;;3.51;;
71183;SDS011;58887;51.980;4.464;2022-10-16T11:32:34;5.26;;;3.35;;
71183;SDS011;58887;51.980;4.464;2022-10-16T11:35:18;5.45;;;3.47;;
71183;SDS011;58887;51.980;4.464;2022-10-16T11:37:57;5.13;;;3.26;;
71183;SDS011;58887;51.980;4.464;2022-10-16T11:40:29;5.14;;;3.27;;
71183;SDS011;58887;51.980;4.464;2022-10-16T11:43:03;4.94;;;3.11;;
71183;SDS011;58887;51.980;4.464;2022-10-16T11:45:52;5.26;;;3.33;;
71183;SDS011;58887;51.980;4.464;2022-10-16T11:53:24;4.93;;;3.12;;
71183;SDS011;58887;51.980;4.464;2022-10-16T11:56:18;5.13;;;3.29;;
71183;SDS011;58887;51.980;4.464;2022-10-16T11:58:52;5.29;;;3.37;;
71183;SDS011;58887;51.980;4.464;2022-10-16T12:01:38;5.07;;;3.19;;
71183;SDS011;58887;51.980;4.464;2022-10-16T12:04:21;5.44;;;3.36;;
71183;SDS011;58887;51.980;4.464;2022-10-16T12:07:05;5.57;;;3.41;;
71183;SDS011;58887;51.980;4.464;2022-10-16T12:09:37;5.27;;;3.19;;
71183;SDS011;58887;51.980;4.464;2022-10-16T12:12:22;5.75;;;3.43;;
71183;SDS011;58887;51.980;4.464;2022-10-16T12:15:00;5.83;;;3.53;;
71183;SDS011;58887;51.980;4.464;2022-10-16T12:17:37;5.83;;;3.58;;
71183;SDS011;58887;51.980;4.464;2022-10-16T12:22:41;5.98;;;3.68;;
71183;SDS011;58887;51.980;4.464;2022-10-16T12:25:29;5.13;;;3.20;;
71183;SDS011;58887;51.980;4.464;2022-10-16T12:28:01;5.08;;;3.20;;
71183;SDS011;58887;51.980;4.464;2022-10-16T12:30:31;6.21;;;3.84;;
71183;SDS011;58887;51.980;4.464;2022-10-16T12:33:22;6.41;;;3.93;;
71183;SDS011;58887;51.980;4.464;2022-10-16T12:35:47;5.97;;;3.61;;
71183;SDS011;58887;51.980;4.464;2022-10-16T12:40:57;6.21;;;3.82;;
71183;SDS011;58887;51.980;4.464;2022-10-16T12:48:33;5.50;;;3.37;;
71183;SDS011;58887;51.980;4.464;2022-10-16T12:51:12;4.52;;;2.80;;
71183;SDS011;58887;51.980;4.464;2022-10-16T12:56:37;5.10;;;3.14;;
71183;SDS011;58887;51.980;4.464;2022-10-16T13:08:05;5.63;;;3.50;;
71183;SDS011;58887;51.980;4.464;2022-10-16T13:11:27;5.63;;;3.52;;
71183;SDS011;58887;51.980;4.464;2022-10-16T13:21:20;5.83;;;3.57;;
71183;SDS011;58887;51.980;4.464;2022-10-16T13:26:44;5.48;;;3.38;;
71183;SDS011;58887;51.980;4.464;2022-10-16T13:29:21;4.85;;;3.00;;
71183;SDS011;58887;51.980;4.464;2022-10-16T13:31:48;5.54;;;3.49;;
71183;SDS011;58887;51.980;4.464;2022-10-16T13:34:16;5.42;;;3.40;;
71183;SDS011;58887;51.980;4.464;2022-10-16T13:36:47;5.46;;;3.43;;
71183;SDS011;58887;51.980;4.464;2022-10-16T13:39:35;5.92;;;3.76;;
71183;SDS011;58887;51.980;4.464;2022-10-16T13:42:05;5.89;;;3.73;;
71183;SDS011;58887;51.980;4.464;2022-10-16T13:44:42;6.19;;;3.89;;
71183;SDS011;58887;51.980;4.464;2022-10-16T13:47:22;6.20;;;3.91;;
71183;SDS011;58887;51.980;4.464;2022-10-16T13:50:02;5.73;;;3.60;;
71183;SDS011;58887;51.980;4.464;2022-10-16T13:52:36;5.76;;;3.59;;
71183;SDS011;58887;51.980;4.464;2022-10-16T13:55:03;5.56;;;3.50;;
71183;SDS011;58887;51.980;4.464;2022-10-16T13:57:35;5.49;;;3.51;;
71183;SDS011;58887;51.980;4.464;2022-10-16T14:00:00;4.54;;;2.99;;
71183;SDS011;58887;51.980;4.464;2022-10-16T14:04:54;5.01;;;3.28;;
71183;SDS011;58887;51.980;4.464;2022-10-16T14:07:23;5.66;;;3.67;;
71183;SDS011;58887;51.980;4.464;2022-10-16T14:09:52;5.73;;;3.70;;
71183;SDS011;58887;51.980;4.464;2022-10-16T14:12:19;5.67;;;3.63;;
71183;SDS011;58887;51.980;4.464;2022-10-16T14:14:48;6.47;;;4.08;;
71183;SDS011;58887;51.980;4.464;2022-10-16T14:17:30;5.26;;;3.33;;
71183;SDS011;58887;51.980;4.464;2022-10-16T14:20:00;6.12;;;3.88;;
71183;SDS011;58887;51.980;4.464;2022-10-16T14:24:54;5.22;;;3.33;;
71183;SDS011;58887;51.980;4.464;2022-10-16T14:27:28;5.58;;;3.57;;
71183;SDS011;58887;51.980;4.464;2022-10-16T14:30:33;5.81;;;3.74;;
71183;SDS011;58887;51.980;4.464;2022-10-16T14:32:55;5.43;;;3.52;;
71183;SDS011;58887;51.980;4.464;2022-10-16T14:35:28;5.33;;;3.44;;
71183;SDS011;58887;51.980;4.464;2022-10-16T14:37:58;5.72;;;3.67;;
71183;SDS011;58887;51.980;4.464;2022-10-16T14:40:30;5.59;;;3.59;;
71183;SDS011;58887;51.980;4.464;2022-10-16T14:43:01;6.12;;;3.85;;
71183;SDS011;58887;51.980;4.464;2022-10-16T14:45:29;6.01;;;3.77;;
71183;SDS011;58887;51.980;4.464;2022-10-16T14:47:59;6.24;;;3.90;;
71183;SDS011;58887;51.980;4.464;2022-10-16T14:50:30;6.06;;;3.85;;
71183;SDS011;58887;51.980;4.464;2022-10-16T14:52:55;5.94;;;3.84;;
71183;SDS011;58887;51.980;4.464;2022-10-16T14:55:21;5.96;;;3.84;;
71183;SDS011;58887;51.980;4.464;2022-10-16T14:57:47;5.63;;;3.59;;
71183;SDS011;58887;51.980;4.464;2022-10-16T15:00:20;6.23;;;3.99;;
71183;SDS011;58887;51.980;4.464;2022-10-16T15:02:48;6.02;;;3.81;;
71183;SDS011;58887;51.980;4.464;2022-10-16T15:07:44;5.60;;;3.59;;
71183;SDS011;58887;51.980;4.464;2022-10-16T15:10:11;5.52;;;3.56;;
71183;SDS011;58887;51.980;4.464;2022-10-16T15:12:38;5.55;;;3.64;;
71183;SDS011;58887;51.980;4.464;2022-10-16T15:15:21;5.87;;;3.83;;
71183;SDS011;58887;51.980;4.464;2022-10-16T15:17:52;6.03;;;3.85;;
71183;SDS011;58887;51.980;4.464;2022-10-16T15:20:25;5.91;;;3.81;;
71183;SDS011;58887;51.980;4.464;2022-10-16T15:22:52;5.96;;;3.91;;
71183;SDS011;58887;51.980;4.464;2022-10-16T15:25:29;5.55;;;3.61;;
71183;SDS011;58887;51.980;4.464;2022-10-16T15:28:01;6.32;;;4.10;;
71183;SDS011;58887;51.980;4.464;2022-10-16T15:30:28;6.49;;;4.21;;
71183;SDS011;58887;51.980;4.464;2022-10-16T15:32:55;5.56;;;3.65;;
71183;SDS011;58887;51.980;4.464;2022-10-16T15:35:20;4.95;;;3.33;;
71183;SDS011;58887;51.980;4.464;2022-10-16T15:37:46;5.23;;;3.50;;
71183;SDS011;58887;51.980;4.464;2022-10-16T15:40:13;5.29;;;3.54;;
71183;SDS011;58887;51.980;4.464;2022-10-16T15:42:40;5.84;;;3.93;;
71183;SDS011;58887;51.980;4.464;2022-10-16T15:45:05;5.70;;;3.80;;
71183;SDS011;58887;51.980;4.464;2022-10-16T15:47:31;5.27;;;3.49;;
71183;SDS011;58887;51.980;4.464;2022-10-16T15:49:57;4.96;;;3.36;;
71183;SDS011;58887;51.980;4.464;2022-10-16T15:52:23;5.06;;;3.41;;
71183;SDS011;58887;51.980;4.464;2022-10-16T15:54:48;5.23;;;3.50;;
71183;SDS011;58887;51.980;4.464;2022-10-16T15:57:14;6.40;;;4.31;;
71183;SDS011;58887;51.980;4.464;2022-10-16T15:59:39;5.43;;;3.79;;
71183;SDS011;58887;51.980;4.464;2022-10-16T16:02:05;5.06;;;3.73;;
71183;SDS011;58887;51.980;4.464;2022-10-16T16:04:30;5.26;;;3.94;;
71183;SDS011;58887;51.980;4.464;2022-10-16T16:06:56;4.76;;;3.71;;
71183;SDS011;58887;51.980;4.464;2022-10-16T16:09:22;4.92;;;3.87;;
71183;SDS011;58887;51.980;4.464;2022-10-16T16:11:47;4.64;;;3.62;;
71183;SDS011;58887;51.980;4.464;2022-10-16T16:14:14;4.69;;;3.72;;
71183;SDS011;58887;51.980;4.464;2022-10-16T16:16:40;4.96;;;3.86;;
71183;SDS011;58887;51.980;4.464;2022-10-16T16:19:06;4.58;;;3.63;;
71183;SDS011;58887;51.980;4.464;2022-10-16T16:21:32;4.73;;;3.82;;
71183;SDS011;58887;51.980;4.464;2022-10-16T16:23:58;4.80;;;3.92;;
71183;SDS011;58887;51.980;4.464;2022-10-16T16:26:25;4.60;;;3.78;;
71183;SDS011;58887;51.980;4.464;2022-10-16T16:28:55;4.12;;;3.43;;
71183;SDS011;58887;51.980;4.464;2022-10-16T16:31:25;4.32;;;3.61;;
71183;SDS011;58887;51.980;4.464;2022-10-16T16:33:52;4.02;;;3.45;;
71183;SDS011;58887;51.980;4.464;2022-10-16T16:36:18;4.15;;;3.51;;
71183;SDS011;58887;51.980;4.464;2022-10-16T16:38:44;4.27;;;3.58;;
71183;SDS011;58887;51.980;4.464;2022-10-16T16:41:20;3.86;;;3.27;;
71183;SDS011;58887;51.980;4.464;2022-10-16T16:43:48;3.89;;;3.25;;
71183;SDS011;58887;51.980;4.464;2022-10-16T16:46:16;4.72;;;3.85;;